sensor_id;sensor_type;location;lat;lon;timestamp;P1;durP1;ratioP1;P2;durP2;ratioP2
28335;SDS011;15592;53.656;7.276;2023-02-15T00:01:14;58.20;;;37.97;;
28335;SDS011;15592;53.656;7.276;2023-02-15T00:03:40;56.45;;;37.17;;
28335;SDS011;15592;53.656;7.276;2023-02-15T00:06:05;53.95;;;33.65;;
28335;SDS011;15592;53.656;7.276;2023-02-15T00:08:31;46.97;;;30.55;;
28335;SDS011;15592;53.656;7.276;2023-02-15T00:11:04;44.80;;;30.13;;
28335;SDS011;15592;53.656;7.276;2023-02-15T00:13:30;38.63;;;26.73;;
28335;SDS011;15592;53.656;7.276;2023-02-15T00:16:03;35.85;;;25.92;;
28335;SDS011;15592;53.656;7.276;2023-02-15T00:18:30;34.67;;;26.02;;
28335;SDS011;15592;53.656;7.276;2023-02-15T00:20:56;32.55;;;25.17;;
28335;SDS011;15592;53.656;7.276;2023-02-15T00:23:21;33.78;;;25.35;;
28335;SDS011;15592;53.656;7.276;2023-02-15T00:25:47;37.95;;;27.70;;
28335;SDS011;15592;53.656;7.276;2023-02-15T00:28:13;33.95;;;26.95;;
28335;SDS011;15592;53.656;7.276;2023-02-15T00:30:38;37.95;;;27.50;;
28335;SDS011;15592;53.656;7.276;2023-02-15T00:33:04;37.92;;;27.30;;
28335;SDS011;15592;53.656;7.276;2023-02-15T00:35:29;40.60;;;28.05;;
28335;SDS011;15592;53.656;7.276;2023-02-15T00:37:58;32.03;;;24.50;;
28335;SDS011;15592;53.656;7.276;2023-02-15T00:40:23;35.50;;;25.60;;
28335;SDS011;15592;53.656;7.276;2023-02-15T00:42:49;38.42;;;27.38;;
28335;SDS011;15592;53.656;7.276;2023-02-15T00:45:15;43.95;;;29.33;;
28335;SDS011;15592;53.656;7.276;2023-02-15T00:47:40;46.22;;;31.90;;
28335;SDS011;15592;53.656;7.276;2023-02-15T00:50:06;45.08;;;30.67;;
28335;SDS011;15592;53.656;7.276;2023-02-15T00:52:32;39.20;;;28.33;;
28335;SDS011;15592;53.656;7.276;2023-02-15T00:54:57;34.38;;;25.02;;
28335;SDS011;15592;53.656;7.276;2023-02-15T00:57:23;32.78;;;25.83;;
28335;SDS011;15592;53.656;7.276;2023-02-15T00:59:48;31.08;;;24.63;;
28335;SDS011;15592;53.656;7.276;2023-02-15T01:02:14;31.70;;;24.50;;
28335;SDS011;15592;53.656;7.276;2023-02-15T01:04:40;28.48;;;22.88;;
28335;SDS011;15592;53.656;7.276;2023-02-15T01:07:05;29.95;;;24.08;;
28335;SDS011;15592;53.656;7.276;2023-02-15T01:09:31;30.42;;;24.40;;
28335;SDS011;15592;53.656;7.276;2023-02-15T01:11:57;30.60;;;24.50;;
28335;SDS011;15592;53.656;7.276;2023-02-15T01:14:22;30.52;;;24.75;;
28335;SDS011;15592;53.656;7.276;2023-02-15T01:16:48;30.58;;;23.80;;
28335;SDS011;15592;53.656;7.276;2023-02-15T01:19:13;35.72;;;26.90;;
28335;SDS011;15592;53.656;7.276;2023-02-15T01:21:39;38.25;;;28.60;;
28335;SDS011;15592;53.656;7.276;2023-02-15T01:24:10;41.78;;;30.05;;
28335;SDS011;15592;53.656;7.276;2023-02-15T01:26:36;41.03;;;28.30;;
28335;SDS011;15592;53.656;7.276;2023-02-15T01:29:02;42.95;;;30.30;;
28335;SDS011;15592;53.656;7.276;2023-02-15T01:31:28;44.72;;;30.65;;
28335;SDS011;15592;53.656;7.276;2023-02-15T01:33:53;42.30;;;29.92;;
28335;SDS011;15592;53.656;7.276;2023-02-15T01:36:19;40.35;;;29.35;;
28335;SDS011;15592;53.656;7.276;2023-02-15T01:38:45;39.80;;;28.92;;
28335;SDS011;15592;53.656;7.276;2023-02-15T01:41:10;42.80;;;30.08;;
28335;SDS011;15592;53.656;7.276;2023-02-15T01:43:50;37.67;;;28.55;;
28335;SDS011;15592;53.656;7.276;2023-02-15T01:46:16;38.03;;;27.75;;
28335;SDS011;15592;53.656;7.276;2023-02-15T01:48:47;37.80;;;27.58;;
28335;SDS011;15592;53.656;7.276;2023-02-15T01:51:17;34.78;;;26.10;;
28335;SDS011;15592;53.656;7.276;2023-02-15T01:54:01;34.22;;;25.83;;
28335;SDS011;15592;53.656;7.276;2023-02-15T01:56:35;35.70;;;26.13;;
28335;SDS011;15592;53.656;7.276;2023-02-15T01:59:05;32.70;;;25.33;;
28335;SDS011;15592;53.656;7.276;2023-02-15T02:01:36;33.13;;;23.95;;
28335;SDS011;15592;53.656;7.276;2023-02-15T02:04:11;32.15;;;24.88;;
28335;SDS011;15592;53.656;7.276;2023-02-15T02:06:42;33.50;;;26.15;;
28335;SDS011;15592;53.656;7.276;2023-02-15T02:09:11;30.93;;;24.03;;
28335;SDS011;15592;53.656;7.276;2023-02-15T02:11:38;29.88;;;23.58;;
28335;SDS011;15592;53.656;7.276;2023-02-15T02:14:05;28.95;;;23.23;;
28335;SDS011;15592;53.656;7.276;2023-02-15T02:16:40;29.55;;;23.83;;
28335;SDS011;15592;53.656;7.276;2023-02-15T02:22:35;31.27;;;24.13;;
28335;SDS011;15592;53.656;7.276;2023-02-15T02:25:12;34.28;;;25.58;;
28335;SDS011;15592;53.656;7.276;2023-02-15T02:28:32;36.72;;;27.95;;
28335;SDS011;15592;53.656;7.276;2023-02-15T02:42:29;34.53;;;26.45;;
28335;SDS011;15592;53.656;7.276;2023-02-15T02:48:06;37.15;;;28.13;;
28335;SDS011;15592;53.656;7.276;2023-02-15T02:50:34;36.80;;;28.23;;
28335;SDS011;15592;53.656;7.276;2023-02-15T02:53:00;37.63;;;29.13;;
28335;SDS011;15592;53.656;7.276;2023-02-15T03:03:57;37.22;;;28.35;;
28335;SDS011;15592;53.656;7.276;2023-02-15T03:06:42;38.47;;;28.73;;
28335;SDS011;15592;53.656;7.276;2023-02-15T03:09:25;36.83;;;28.55;;
28335;SDS011;15592;53.656;7.276;2023-02-15T03:12:07;36.40;;;28.23;;
28335;SDS011;15592;53.656;7.276;2023-02-15T03:14:35;37.10;;;28.80;;
28335;SDS011;15592;53.656;7.276;2023-02-15T03:17:01;35.83;;;27.35;;
28335;SDS011;15592;53.656;7.276;2023-02-15T03:19:29;35.03;;;26.55;;
28335;SDS011;15592;53.656;7.276;2023-02-15T03:22:00;33.75;;;26.67;;
28335;SDS011;15592;53.656;7.276;2023-02-15T03:24:45;35.22;;;26.55;;
28335;SDS011;15592;53.656;7.276;2023-02-15T03:27:19;34.72;;;26.65;;
28335;SDS011;15592;53.656;7.276;2023-02-15T03:29:56;33.72;;;26.08;;
28335;SDS011;15592;53.656;7.276;2023-02-15T03:32:24;34.92;;;26.30;;
28335;SDS011;15592;53.656;7.276;2023-02-15T03:34:53;33.43;;;25.60;;
28335;SDS011;15592;53.656;7.276;2023-02-15T03:37:25;35.58;;;27.23;;
28335;SDS011;15592;53.656;7.276;2023-02-15T03:39:59;38.58;;;28.25;;
28335;SDS011;15592;53.656;7.276;2023-02-15T03:42:52;35.35;;;25.73;;
28335;SDS011;15592;53.656;7.276;2023-02-15T03:45:30;36.10;;;27.63;;
28335;SDS011;15592;53.656;7.276;2023-02-15T03:47:58;35.05;;;27.30;;
28335;SDS011;15592;53.656;7.276;2023-02-15T03:50:27;37.97;;;27.55;;
28335;SDS011;15592;53.656;7.276;2023-02-15T03:53:15;38.20;;;28.55;;
28335;SDS011;15592;53.656;7.276;2023-02-15T03:55:48;39.85;;;29.45;;
28335;SDS011;15592;53.656;7.276;2023-02-15T03:58:18;37.15;;;27.92;;
28335;SDS011;15592;53.656;7.276;2023-02-15T04:01:10;39.97;;;28.95;;
28335;SDS011;15592;53.656;7.276;2023-02-15T04:04:12;39.00;;;27.95;;
28335;SDS011;15592;53.656;7.276;2023-02-15T04:06:46;39.28;;;28.45;;
28335;SDS011;15592;53.656;7.276;2023-02-15T04:09:12;40.55;;;29.00;;
28335;SDS011;15592;53.656;7.276;2023-02-15T04:11:56;39.47;;;28.73;;
28335;SDS011;15592;53.656;7.276;2023-02-15T04:14:22;39.50;;;29.45;;
28335;SDS011;15592;53.656;7.276;2023-02-15T04:17:06;37.30;;;28.60;;
28335;SDS011;15592;53.656;7.276;2023-02-15T04:19:33;38.08;;;29.40;;
28335;SDS011;15592;53.656;7.276;2023-02-15T04:22:17;37.47;;;28.83;;
28335;SDS011;15592;53.656;7.276;2023-02-15T04:25:01;38.70;;;28.73;;
28335;SDS011;15592;53.656;7.276;2023-02-15T04:27:43;37.28;;;28.83;;
28335;SDS011;15592;53.656;7.276;2023-02-15T04:30:14;40.10;;;29.02;;
28335;SDS011;15592;53.656;7.276;2023-02-15T04:32:41;39.88;;;29.83;;
28335;SDS011;15592;53.656;7.276;2023-02-15T04:35:07;39.28;;;29.83;;
28335;SDS011;15592;53.656;7.276;2023-02-15T04:37:33;38.85;;;29.02;;
28335;SDS011;15592;53.656;7.276;2023-02-15T04:39:58;39.67;;;28.80;;
28335;SDS011;15592;53.656;7.276;2023-02-15T04:42:24;41.33;;;29.20;;
28335;SDS011;15592;53.656;7.276;2023-02-15T04:44:51;40.90;;;30.52;;
28335;SDS011;15592;53.656;7.276;2023-02-15T04:47:17;40.65;;;30.15;;
28335;SDS011;15592;53.656;7.276;2023-02-15T04:49:42;41.00;;;30.02;;
28335;SDS011;15592;53.656;7.276;2023-02-15T04:52:08;40.22;;;29.00;;
28335;SDS011;15592;53.656;7.276;2023-02-15T04:54:34;42.38;;;30.75;;
28335;SDS011;15592;53.656;7.276;2023-02-15T04:57:00;43.28;;;31.45;;
28335;SDS011;15592;53.656;7.276;2023-02-15T04:59:26;44.38;;;31.83;;
28335;SDS011;15592;53.656;7.276;2023-02-15T05:01:51;41.70;;;31.63;;
28335;SDS011;15592;53.656;7.276;2023-02-15T05:04:17;45.22;;;32.67;;
28335;SDS011;15592;53.656;7.276;2023-02-15T05:06:42;45.47;;;31.95;;
28335;SDS011;15592;53.656;7.276;2023-02-15T05:09:08;46.42;;;33.13;;
28335;SDS011;15592;53.656;7.276;2023-02-15T05:11:35;42.83;;;30.58;;
28335;SDS011;15592;53.656;7.276;2023-02-15T05:14:00;42.95;;;31.70;;
28335;SDS011;15592;53.656;7.276;2023-02-15T05:16:26;46.20;;;31.42;;
28335;SDS011;15592;53.656;7.276;2023-02-15T05:18:52;47.83;;;33.22;;
28335;SDS011;15592;53.656;7.276;2023-02-15T05:21:18;46.58;;;32.67;;
28335;SDS011;15592;53.656;7.276;2023-02-15T05:23:44;50.10;;;33.80;;
28335;SDS011;15592;53.656;7.276;2023-02-15T05:26:16;50.63;;;35.30;;
28335;SDS011;15592;53.656;7.276;2023-02-15T05:29:02;54.70;;;35.80;;
28335;SDS011;15592;53.656;7.276;2023-02-15T05:31:28;62.17;;;37.80;;
28335;SDS011;15592;53.656;7.276;2023-02-15T05:33:55;64.78;;;41.50;;
28335;SDS011;15592;53.656;7.276;2023-02-15T05:36:21;62.63;;;41.42;;
28335;SDS011;15592;53.656;7.276;2023-02-15T05:38:46;68.00;;;40.22;;
28335;SDS011;15592;53.656;7.276;2023-02-15T05:41:12;64.28;;;40.30;;
28335;SDS011;15592;53.656;7.276;2023-02-15T05:43:38;64.50;;;40.78;;
28335;SDS011;15592;53.656;7.276;2023-02-15T05:46:04;64.25;;;40.28;;
28335;SDS011;15592;53.656;7.276;2023-02-15T05:48:30;66.38;;;40.47;;
28335;SDS011;15592;53.656;7.276;2023-02-15T05:50:57;63.55;;;42.08;;
28335;SDS011;15592;53.656;7.276;2023-02-15T05:53:27;77.18;;;45.42;;
28335;SDS011;15592;53.656;7.276;2023-02-15T05:55:54;73.85;;;47.20;;
28335;SDS011;15592;53.656;7.276;2023-02-15T05:58:24;78.55;;;46.67;;
28335;SDS011;15592;53.656;7.276;2023-02-15T06:00:50;71.60;;;45.80;;
28335;SDS011;15592;53.656;7.276;2023-02-15T06:03:16;75.40;;;46.97;;
28335;SDS011;15592;53.656;7.276;2023-02-15T06:05:42;76.18;;;47.22;;
28335;SDS011;15592;53.656;7.276;2023-02-15T06:08:07;77.60;;;47.50;;
28335;SDS011;15592;53.656;7.276;2023-02-15T06:10:33;72.45;;;44.80;;
28335;SDS011;15592;53.656;7.276;2023-02-15T06:12:58;74.28;;;46.70;;
28335;SDS011;15592;53.656;7.276;2023-02-15T06:15:24;66.45;;;43.92;;
28335;SDS011;15592;53.656;7.276;2023-02-15T06:17:49;73.82;;;45.20;;
28335;SDS011;15592;53.656;7.276;2023-02-15T06:20:15;72.35;;;46.55;;
28335;SDS011;15592;53.656;7.276;2023-02-15T06:22:41;70.40;;;45.22;;
28335;SDS011;15592;53.656;7.276;2023-02-15T06:25:06;71.03;;;44.97;;
28335;SDS011;15592;53.656;7.276;2023-02-15T06:27:34;78.60;;;49.42;;
28335;SDS011;15592;53.656;7.276;2023-02-15T06:30:00;83.45;;;50.47;;
28335;SDS011;15592;53.656;7.276;2023-02-15T06:32:26;83.78;;;48.72;;
28335;SDS011;15592;53.656;7.276;2023-02-15T06:34:52;86.00;;;51.13;;
28335;SDS011;15592;53.656;7.276;2023-02-15T06:37:17;93.20;;;53.22;;
28335;SDS011;15592;53.656;7.276;2023-02-15T06:39:43;87.43;;;52.00;;
28335;SDS011;15592;53.656;7.276;2023-02-15T06:42:09;90.72;;;51.10;;
28335;SDS011;15592;53.656;7.276;2023-02-15T06:44:34;95.68;;;53.58;;
28335;SDS011;15592;53.656;7.276;2023-02-15T06:47:00;91.28;;;52.03;;
28335;SDS011;15592;53.656;7.276;2023-02-15T06:49:26;86.22;;;50.97;;
28335;SDS011;15592;53.656;7.276;2023-02-15T06:51:51;87.30;;;51.28;;
28335;SDS011;15592;53.656;7.276;2023-02-15T06:54:17;81.97;;;49.50;;
28335;SDS011;15592;53.656;7.276;2023-02-15T06:56:42;77.28;;;46.53;;
28335;SDS011;15592;53.656;7.276;2023-02-15T06:59:08;78.22;;;47.88;;
28335;SDS011;15592;53.656;7.276;2023-02-15T07:01:34;87.95;;;49.45;;
28335;SDS011;15592;53.656;7.276;2023-02-15T07:04:01;77.93;;;46.00;;
28335;SDS011;15592;53.656;7.276;2023-02-15T07:06:30;80.28;;;48.97;;
28335;SDS011;15592;53.656;7.276;2023-02-15T07:08:56;78.30;;;48.45;;
28335;SDS011;15592;53.656;7.276;2023-02-15T07:11:22;81.85;;;47.65;;
28335;SDS011;15592;53.656;7.276;2023-02-15T07:14:06;86.60;;;49.13;;
28335;SDS011;15592;53.656;7.276;2023-02-15T07:16:32;86.30;;;48.53;;
28335;SDS011;15592;53.656;7.276;2023-02-15T07:18:57;87.75;;;50.13;;
28335;SDS011;15592;53.656;7.276;2023-02-15T07:21:23;93.18;;;52.67;;
28335;SDS011;15592;53.656;7.276;2023-02-15T07:23:48;87.70;;;51.72;;
28335;SDS011;15592;53.656;7.276;2023-02-15T07:26:14;90.40;;;51.90;;
28335;SDS011;15592;53.656;7.276;2023-02-15T07:28:39;95.88;;;53.33;;
28335;SDS011;15592;53.656;7.276;2023-02-15T07:31:05;87.07;;;50.47;;
28335;SDS011;15592;53.656;7.276;2023-02-15T07:33:31;99.07;;;52.38;;
28335;SDS011;15592;53.656;7.276;2023-02-15T07:35:58;91.13;;;52.17;;
28335;SDS011;15592;53.656;7.276;2023-02-15T07:38:26;87.32;;;49.38;;
28335;SDS011;15592;53.656;7.276;2023-02-15T07:41:04;91.82;;;51.70;;
28335;SDS011;15592;53.656;7.276;2023-02-15T07:43:33;84.32;;;49.60;;
28335;SDS011;15592;53.656;7.276;2023-02-15T07:46:01;94.78;;;53.28;;
28335;SDS011;15592;53.656;7.276;2023-02-15T07:48:27;92.60;;;53.60;;
28335;SDS011;15592;53.656;7.276;2023-02-15T07:50:53;101.05;;;53.92;;
28335;SDS011;15592;53.656;7.276;2023-02-15T07:53:18;97.40;;;54.30;;
28335;SDS011;15592;53.656;7.276;2023-02-15T07:55:44;99.03;;;53.88;;
28335;SDS011;15592;53.656;7.276;2023-02-15T07:58:10;96.65;;;54.17;;
28335;SDS011;15592;53.656;7.276;2023-02-15T08:00:35;104.80;;;54.67;;
28335;SDS011;15592;53.656;7.276;2023-02-15T08:03:19;103.57;;;55.22;;
28335;SDS011;15592;53.656;7.276;2023-02-15T08:05:54;102.90;;;55.92;;
28335;SDS011;15592;53.656;7.276;2023-02-15T08:08:21;101.28;;;55.95;;
28335;SDS011;15592;53.656;7.276;2023-02-15T08:19:09;105.35;;;57.42;;
28335;SDS011;15592;53.656;7.276;2023-02-15T08:21:40;100.63;;;55.08;;
28335;SDS011;15592;53.656;7.276;2023-02-15T08:24:08;96.78;;;57.22;;
28335;SDS011;15592;53.656;7.276;2023-02-15T08:26:35;94.43;;;53.45;;
28335;SDS011;15592;53.656;7.276;2023-02-15T08:29:01;93.95;;;54.00;;
28335;SDS011;15592;53.656;7.276;2023-02-15T08:31:28;90.45;;;51.85;;
28335;SDS011;15592;53.656;7.276;2023-02-15T08:33:54;87.65;;;49.97;;
28335;SDS011;15592;53.656;7.276;2023-02-15T08:36:22;88.47;;;52.83;;
28335;SDS011;15592;53.656;7.276;2023-02-15T08:38:49;103.28;;;58.17;;
28335;SDS011;15592;53.656;7.276;2023-02-15T08:41:16;102.00;;;56.35;;
28335;SDS011;15592;53.656;7.276;2023-02-15T08:43:43;104.05;;;57.28;;
28335;SDS011;15592;53.656;7.276;2023-02-15T08:46:10;108.88;;;60.65;;
28335;SDS011;15592;53.656;7.276;2023-02-15T08:48:37;101.13;;;59.25;;
28335;SDS011;15592;53.656;7.276;2023-02-15T08:51:09;106.15;;;58.92;;
28335;SDS011;15592;53.656;7.276;2023-02-15T08:53:41;107.57;;;60.80;;
28335;SDS011;15592;53.656;7.276;2023-02-15T08:56:09;110.60;;;63.92;;
28335;SDS011;15592;53.656;7.276;2023-02-15T08:58:36;125.93;;;69.32;;
28335;SDS011;15592;53.656;7.276;2023-02-15T09:01:09;134.18;;;73.88;;
28335;SDS011;15592;53.656;7.276;2023-02-15T09:03:35;133.05;;;73.47;;
28335;SDS011;15592;53.656;7.276;2023-02-15T09:06:00;128.27;;;73.95;;
28335;SDS011;15592;53.656;7.276;2023-02-15T09:08:27;139.93;;;78.50;;
28335;SDS011;15592;53.656;7.276;2023-02-15T09:10:53;132.55;;;73.22;;
28335;SDS011;15592;53.656;7.276;2023-02-15T09:13:19;132.52;;;73.97;;
28335;SDS011;15592;53.656;7.276;2023-02-15T09:15:46;132.82;;;75.50;;
28335;SDS011;15592;53.656;7.276;2023-02-15T09:18:12;132.77;;;76.10;;
28335;SDS011;15592;53.656;7.276;2023-02-15T09:20:42;137.43;;;77.20;;
28335;SDS011;15592;53.656;7.276;2023-02-15T09:23:09;137.50;;;77.15;;
28335;SDS011;15592;53.656;7.276;2023-02-15T09:25:34;136.98;;;75.47;;
28335;SDS011;15592;53.656;7.276;2023-02-15T09:28:00;129.48;;;73.88;;
28335;SDS011;15592;53.656;7.276;2023-02-15T09:30:25;129.15;;;71.68;;
28335;SDS011;15592;53.656;7.276;2023-02-15T09:32:51;127.40;;;72.85;;
28335;SDS011;15592;53.656;7.276;2023-02-15T09:35:16;124.18;;;70.15;;
28335;SDS011;15592;53.656;7.276;2023-02-15T09:37:42;125.50;;;70.70;;
28335;SDS011;15592;53.656;7.276;2023-02-15T09:40:08;123.80;;;70.97;;
28335;SDS011;15592;53.656;7.276;2023-02-15T09:42:42;138.75;;;75.45;;
28335;SDS011;15592;53.656;7.276;2023-02-15T09:50:56;165.40;;;89.20;;
28335;SDS011;15592;53.656;7.276;2023-02-15T09:59:09;159.82;;;83.13;;
28335;SDS011;15592;53.656;7.276;2023-02-15T10:07:23;163.88;;;84.22;;
28335;SDS011;15592;53.656;7.276;2023-02-15T10:10:09;155.85;;;82.57;;
28335;SDS011;15592;53.656;7.276;2023-02-15T10:26:17;148.88;;;81.25;;
28335;SDS011;15592;53.656;7.276;2023-02-15T10:31:20;155.55;;;81.22;;
28335;SDS011;15592;53.656;7.276;2023-02-15T10:33:56;142.40;;;78.60;;
28335;SDS011;15592;53.656;7.276;2023-02-15T10:41:59;133.38;;;71.65;;
28335;SDS011;15592;53.656;7.276;2023-02-15T10:50:20;124.57;;;67.30;;
28335;SDS011;15592;53.656;7.276;2023-02-15T10:53:02;116.35;;;65.53;;
28335;SDS011;15592;53.656;7.276;2023-02-15T10:55:45;117.72;;;64.60;;
28335;SDS011;15592;53.656;7.276;2023-02-15T11:04:30;105.95;;;60.63;;
28335;SDS011;15592;53.656;7.276;2023-02-15T11:07:07;101.72;;;60.38;;
28335;SDS011;15592;53.656;7.276;2023-02-15T11:10:05;103.07;;;59.10;;
28335;SDS011;15592;53.656;7.276;2023-02-15T11:12:38;95.13;;;55.50;;
28335;SDS011;15592;53.656;7.276;2023-02-15T11:15:22;91.25;;;53.28;;
28335;SDS011;15592;53.656;7.276;2023-02-15T11:18:16;98.35;;;55.10;;
28335;SDS011;15592;53.656;7.276;2023-02-15T11:23:18;89.32;;;52.53;;
28335;SDS011;15592;53.656;7.276;2023-02-15T11:25:45;87.82;;;51.13;;
28335;SDS011;15592;53.656;7.276;2023-02-15T11:28:40;85.78;;;49.70;;
28335;SDS011;15592;53.656;7.276;2023-02-15T11:31:13;78.80;;;46.70;;
28335;SDS011;15592;53.656;7.276;2023-02-15T11:34:04;78.68;;;46.97;;
28335;SDS011;15592;53.656;7.276;2023-02-15T11:36:37;81.13;;;48.33;;
28335;SDS011;15592;53.656;7.276;2023-02-15T11:39:10;86.43;;;49.17;;
28335;SDS011;15592;53.656;7.276;2023-02-15T11:41:40;82.30;;;48.22;;
28335;SDS011;15592;53.656;7.276;2023-02-15T11:44:17;80.03;;;45.70;;
28335;SDS011;15592;53.656;7.276;2023-02-15T11:46:48;83.25;;;48.50;;
28335;SDS011;15592;53.656;7.276;2023-02-15T11:49:22;82.60;;;49.28;;
28335;SDS011;15592;53.656;7.276;2023-02-15T11:51:54;86.47;;;49.55;;
28335;SDS011;15592;53.656;7.276;2023-02-15T11:54:24;82.68;;;48.63;;
28335;SDS011;15592;53.656;7.276;2023-02-15T11:56:54;82.05;;;48.97;;
28335;SDS011;15592;53.656;7.276;2023-02-15T11:59:31;82.43;;;46.90;;
28335;SDS011;15592;53.656;7.276;2023-02-15T12:02:01;78.95;;;45.50;;
28335;SDS011;15592;53.656;7.276;2023-02-15T12:04:32;79.32;;;46.38;;
28335;SDS011;15592;53.656;7.276;2023-02-15T12:07:09;78.00;;;45.33;;
28335;SDS011;15592;53.656;7.276;2023-02-15T12:09:46;72.47;;;44.95;;
28335;SDS011;15592;53.656;7.276;2023-02-15T12:12:37;74.80;;;45.10;;
28335;SDS011;15592;53.656;7.276;2023-02-15T12:15:04;75.80;;;45.67;;
28335;SDS011;15592;53.656;7.276;2023-02-15T12:17:38;77.70;;;45.53;;
28335;SDS011;15592;53.656;7.276;2023-02-15T12:22:39;74.68;;;43.15;;
28335;SDS011;15592;53.656;7.276;2023-02-15T12:27:52;69.45;;;42.75;;
28335;SDS011;15592;53.656;7.276;2023-02-15T12:30:19;71.32;;;42.92;;
28335;SDS011;15592;53.656;7.276;2023-02-15T12:35:23;74.93;;;44.40;;
28335;SDS011;15592;53.656;7.276;2023-02-15T12:37:54;72.40;;;42.28;;
28335;SDS011;15592;53.656;7.276;2023-02-15T12:40:29;69.05;;;41.83;;
28335;SDS011;15592;53.656;7.276;2023-02-15T12:42:58;72.47;;;42.80;;
28335;SDS011;15592;53.656;7.276;2023-02-15T12:45:30;71.35;;;43.00;;
28335;SDS011;15592;53.656;7.276;2023-02-15T12:48:13;72.78;;;42.67;;
28335;SDS011;15592;53.656;7.276;2023-02-15T12:50:41;70.35;;;43.00;;
28335;SDS011;15592;53.656;7.276;2023-02-15T12:53:15;71.25;;;41.95;;
28335;SDS011;15592;53.656;7.276;2023-02-15T12:55:57;72.20;;;41.60;;
28335;SDS011;15592;53.656;7.276;2023-02-15T12:58:29;72.95;;;41.63;;
28335;SDS011;15592;53.656;7.276;2023-02-15T13:01:15;73.25;;;41.28;;
28335;SDS011;15592;53.656;7.276;2023-02-15T13:06:14;71.15;;;39.70;;
28335;SDS011;15592;53.656;7.276;2023-02-15T13:08:46;70.50;;;41.20;;
28335;SDS011;15592;53.656;7.276;2023-02-15T13:11:19;72.35;;;41.47;;
28335;SDS011;15592;53.656;7.276;2023-02-15T13:14:00;73.07;;;39.83;;
28335;SDS011;15592;53.656;7.276;2023-02-15T13:16:34;68.07;;;41.40;;
28335;SDS011;15592;53.656;7.276;2023-02-15T13:19:12;72.97;;;39.95;;
28335;SDS011;15592;53.656;7.276;2023-02-15T13:21:41;70.65;;;39.72;;
28335;SDS011;15592;53.656;7.276;2023-02-15T13:24:23;69.97;;;39.65;;
28335;SDS011;15592;53.656;7.276;2023-02-15T13:26:52;73.03;;;41.85;;
28335;SDS011;15592;53.656;7.276;2023-02-15T13:29:27;71.22;;;39.03;;
28335;SDS011;15592;53.656;7.276;2023-02-15T13:31:55;80.68;;;41.80;;
28335;SDS011;15592;53.656;7.276;2023-02-15T13:34:30;71.65;;;39.15;;
28335;SDS011;15592;53.656;7.276;2023-02-15T14:14:46;77.78;;;41.47;;
28335;SDS011;15592;53.656;7.276;2023-02-15T14:19:46;74.90;;;40.28;;
28335;SDS011;15592;53.656;7.276;2023-02-15T14:22:34;78.07;;;42.05;;
28335;SDS011;15592;53.656;7.276;2023-02-15T14:28:03;81.20;;;43.15;;
28335;SDS011;15592;53.656;7.276;2023-02-15T14:30:41;75.30;;;40.35;;
28335;SDS011;15592;53.656;7.276;2023-02-15T14:35:39;73.00;;;40.28;;
28335;SDS011;15592;53.656;7.276;2023-02-15T14:38:21;74.45;;;40.42;;
28335;SDS011;15592;53.656;7.276;2023-02-15T14:40:59;73.25;;;41.22;;
28335;SDS011;15592;53.656;7.276;2023-02-15T15:04:33;68.70;;;37.78;;
28335;SDS011;15592;53.656;7.276;2023-02-15T15:09:37;72.45;;;38.50;;
28335;SDS011;15592;53.656;7.276;2023-02-15T15:12:18;64.07;;;38.35;;
28335;SDS011;15592;53.656;7.276;2023-02-15T15:15:00;71.65;;;40.53;;
28335;SDS011;15592;53.656;7.276;2023-02-15T15:20:11;69.35;;;40.47;;
28335;SDS011;15592;53.656;7.276;2023-02-15T15:31:20;75.00;;;41.53;;
28335;SDS011;15592;53.656;7.276;2023-02-15T15:34:12;74.43;;;40.97;;
28335;SDS011;15592;53.656;7.276;2023-02-15T15:42:55;77.43;;;42.25;;
28335;SDS011;15592;53.656;7.276;2023-02-15T15:45:43;77.75;;;43.75;;
28335;SDS011;15592;53.656;7.276;2023-02-15T15:48:38;78.40;;;41.55;;
28335;SDS011;15592;53.656;7.276;2023-02-15T15:51:26;81.35;;;44.03;;
28335;SDS011;15592;53.656;7.276;2023-02-15T15:53:58;82.63;;;43.83;;
28335;SDS011;15592;53.656;7.276;2023-02-15T15:56:33;76.80;;;42.28;;
28335;SDS011;15592;53.656;7.276;2023-02-15T15:59:04;83.65;;;44.20;;
28335;SDS011;15592;53.656;7.276;2023-02-15T16:01:39;79.80;;;44.35;;
28335;SDS011;15592;53.656;7.276;2023-02-15T16:04:14;81.97;;;45.22;;
28335;SDS011;15592;53.656;7.276;2023-02-15T16:06:57;76.93;;;44.20;;
28335;SDS011;15592;53.656;7.276;2023-02-15T16:09:38;80.03;;;43.83;;
28335;SDS011;15592;53.656;7.276;2023-02-15T16:12:04;76.50;;;44.50;;
28335;SDS011;15592;53.656;7.276;2023-02-15T16:14:39;92.40;;;49.17;;
28335;SDS011;15592;53.656;7.276;2023-02-15T16:17:07;82.72;;;46.42;;
28335;SDS011;15592;53.656;7.276;2023-02-15T16:19:41;85.43;;;46.22;;
28335;SDS011;15592;53.656;7.276;2023-02-15T16:22:10;87.80;;;48.28;;
28335;SDS011;15592;53.656;7.276;2023-02-15T16:29:43;87.82;;;49.03;;
28335;SDS011;15592;53.656;7.276;2023-02-15T16:32:17;81.32;;;47.00;;
28335;SDS011;15592;53.656;7.276;2023-02-15T16:34:55;92.63;;;49.28;;
28335;SDS011;15592;53.656;7.276;2023-02-15T16:37:23;92.47;;;48.85;;
28335;SDS011;15592;53.656;7.276;2023-02-15T16:39:52;90.30;;;48.17;;
28335;SDS011;15592;53.656;7.276;2023-02-15T16:42:21;92.00;;;50.15;;
28335;SDS011;15592;53.656;7.276;2023-02-15T16:44:49;96.10;;;49.80;;
28335;SDS011;15592;53.656;7.276;2023-02-15T16:47:22;91.88;;;49.30;;
28335;SDS011;15592;53.656;7.276;2023-02-15T16:49:51;92.53;;;49.40;;
28335;SDS011;15592;53.656;7.276;2023-02-15T16:52:20;91.78;;;48.75;;
28335;SDS011;15592;53.656;7.276;2023-02-15T16:54:59;91.60;;;49.00;;
28335;SDS011;15592;53.656;7.276;2023-02-15T16:57:27;92.57;;;50.22;;
28335;SDS011;15592;53.656;7.276;2023-02-15T17:00:01;90.93;;;50.90;;
28335;SDS011;15592;53.656;7.276;2023-02-15T17:02:33;92.00;;;50.90;;
28335;SDS011;15592;53.656;7.276;2023-02-15T17:07:48;92.93;;;50.20;;
28335;SDS011;15592;53.656;7.276;2023-02-15T17:10:26;103.75;;;50.17;;
28335;SDS011;15592;53.656;7.276;2023-02-15T17:12:53;86.75;;;48.78;;
28335;SDS011;15592;53.656;7.276;2023-02-15T17:15:36;88.45;;;49.17;;
28335;SDS011;15592;53.656;7.276;2023-02-15T17:18:04;89.68;;;47.53;;
28335;SDS011;15592;53.656;7.276;2023-02-15T17:20:32;88.55;;;48.70;;
28335;SDS011;15592;53.656;7.276;2023-02-15T17:22:58;87.03;;;48.60;;
28335;SDS011;15592;53.656;7.276;2023-02-15T17:25:26;87.82;;;48.20;;
28335;SDS011;15592;53.656;7.276;2023-02-15T17:28:02;92.57;;;50.72;;
28335;SDS011;15592;53.656;7.276;2023-02-15T17:30:32;92.00;;;49.10;;
28335;SDS011;15592;53.656;7.276;2023-02-15T17:33:03;89.03;;;48.15;;
28335;SDS011;15592;53.656;7.276;2023-02-15T17:35:30;87.13;;;47.97;;
28335;SDS011;15592;53.656;7.276;2023-02-15T17:38:04;88.60;;;46.83;;
28335;SDS011;15592;53.656;7.276;2023-02-15T17:40:39;84.47;;;45.35;;
28335;SDS011;15592;53.656;7.276;2023-02-15T17:43:05;90.78;;;48.22;;
28335;SDS011;15592;53.656;7.276;2023-02-15T17:45:36;87.15;;;46.50;;
28335;SDS011;15592;53.656;7.276;2023-02-15T17:48:21;88.10;;;46.00;;
28335;SDS011;15592;53.656;7.276;2023-02-15T17:50:55;84.68;;;45.13;;
28335;SDS011;15592;53.656;7.276;2023-02-15T17:53:22;85.13;;;45.17;;
28335;SDS011;15592;53.656;7.276;2023-02-15T17:55:49;81.38;;;45.03;;